Saga Sapphire — 9HOF8 — position and weather

sailwx.info

Track history (hours):
 
Tides and Currents Weather Stations Pressure Air Temp Water Temp Dewpoint Dewpoint Depression Visibility Wind Speed Wind Dir Waves Ship Positions

Saga Sapphire

Last reported at 2017-May-29 20:30 UTC. Time now 2017-May-29 20:41 UTC.
Position N 41°49' E 010°48'.

Length 200 m; draft 8.5 m.

Type: Ship. MMSI: 256208000.

Date/timePositionNaut miles runAvg speedWind from/ knotsBaromVisibWave heightAir tempDewpointWater temp
2017-May-29 20:30N 41°49' E 010°48'816.2
2017-May-29 20:00N 41°52' E 010°58'815.7
2017-May-29 19:30N 41°55' E 011°08'815.5
2017-May-29 19:00N 41°58' E 011°18'815.4
2017-May-29 18:27N 42°01' E 011°28'914.9
2017-May-29 17:52N 42°04' E 011°39'511.5
2017-May-29 17:29N 42°07' E 011°44'2 1.8
2017-May-29 16:33N 42°06' E 011°46'0 0.0
2017-May-29 10:35N 42°06' E 011°46'38 4.4
2017-May-29 01:48N 42°12' E 010°55'311.2
2017-May-29 01:30N 42°14' E 010°52'714.7
2017-May-29 01:00N 42°12' E 010°42'741.1 330 / 31018.210.8 20.418.021.0
2017-May-29 00:49N 42°19' E 010°44'410.9
2017-May-29 00:29N 42°22' E 010°41'1110.7
2017-May-28 23:26N 42°33' E 010°37'4 9.7
2017-May-28 23:00N 42°37' E 010°36'510.4
2017-May-28 22:30N 42°42' E 010°34'713.7
2017-May-28 22:00N 42°49' E 010°32'713.2
2017-May-28 21:30N 42°55' E 010°28'612.2
2017-May-28 21:00N 43°00' E 010°25'611.1
2017-May-28 20:30N 43°05' E 010°23'611.9
2017-May-28 20:00N 43°11' E 010°20'612.6
2017-May-28 19:30N 43°17' E 010°17'612.4
2017-May-28 19:00N 43°23' E 010°14'611.6
2017-May-28 18:30N 43°28' E 010°12'4 7.4
2017-May-28 18:00N 43°32' E 010°15'3 5.4
2017-May-28 17:30N 43°33' E 010°18'0 0.0
2017-May-28 16:55N 43°33' E 010°18'0 0.0
2017-May-28 16:28N 43°33' E 010°18'0 0.0
2017-May-28 16:00N 43°33' E 010°18'0 0.0
2017-May-28 15:30N 43°33' E 010°18'0 0.0
2017-May-28 15:00N 43°33' E 010°18'0 0.0
2017-May-28 14:00N 43°33' E 010°18'0 0.0
2017-May-28 13:29N 43°33' E 010°18'0 0.0
2017-May-28 12:59N 43°33' E 010°18'0 0.0
2017-May-28 12:28N 43°33' E 010°18'0 0.0
2017-May-28 11:55N 43°33' E 010°18'0 0.0
2017-May-28 11:28N 43°33' E 010°18'0 0.0
2017-May-28 11:00N 43°33' E 010°18'0 0.0
2017-May-28 10:30N 43°33' E 010°18'0 0.0
2017-May-28 10:00N 43°33' E 010°18'0 0.0
2017-May-28 09:30N 43°33' E 010°18'0 0.0
2017-May-28 09:00N 43°33' E 010°18'0 0.0
2017-May-28 08:30N 43°33' E 010°18'0 0.0
2017-May-28 08:00N 43°33' E 010°18'0 0.0
2017-May-28 07:30N 43°33' E 010°18'0 0.0
2017-May-28 07:00N 43°33' E 010°18'0 0.2
2017-May-28 06:30N 43°33' E 010°18'2 3.8
2017-May-28 06:00N 43°32' E 010°16'4 9.0
2017-May-28 05:30N 43°30' E 010°10'612.6
2017-May-28 05:00N 43°30' E 010°02'714.0
2017-May-28 04:30N 43°29' E 009°52'713.9
2017-May-28 04:00N 43°28' E 009°43'714.1
2017-May-28 03:30N 43°27' E 009°33'815.4
2017-May-28 03:01N 43°25' E 009°23'815.4
2017-May-28 02:31N 43°23' E 009°13'815.6
2017-May-28 02:00N 43°21' E 009°02'815.6
2017-May-28 01:30N 43°20' E 008°52'815.3
2017-May-28 01:00N 43°18' E 008°42'028.8
2017-May-28 01:00N 43°18' E 008°42'816.7 040 / 91020.510.8 19.617.920.0
2017-May-28 00:30N 43°15' E 008°31'1715.4
2017-May-27 23:23N 43°09' E 008°09'1915.3
2017-May-27 22:09N 43°08' E 007°43'416.2
2017-May-27 21:53N 43°07' E 007°38'616.3
2017-May-27 21:30N 43°06' E 007°29'6115.3
2017-May-27 17:29N 42°56' E 006°06'916.3
2017-May-27 16:56N 42°58' E 005°54'916.2
2017-May-27 16:24N 43°00' E 005°42'616.2
2017-May-27 16:00N 43°03' E 005°35'1015.1
2017-May-27 15:23N 43°07' E 005°23'614.9
2017-May-27 14:58N 43°12' E 005°17'9 9.4
2017-May-27 14:00N 43°21' E 005°20'0 0.1
2017-May-27 13:27N 43°21' E 005°20'0 0.0
2017-May-27 12:57N 43°21' E 005°20'0 0.0
2017-May-27 12:27N 43°21' E 005°20'0 0.0
2017-May-27 11:57N 43°21' E 005°20'0 0.0
2017-May-27 11:18N 43°21' E 005°20'0 0.0
2017-May-27 11:00N 43°21' E 005°20'0 0.0
2017-May-27 10:18N 43°21' E 005°20'0 0.0
2017-May-27 10:00N 43°21' E 005°20'0 0.0
2017-May-27 09:06N 43°21' E 005°20'0 0.0
2017-May-27 08:51N 43°21' E 005°20'0 0.0
2017-May-27 08:21N 43°21' E 005°20'0 0.0
2017-May-27 07:51N 43°21' E 005°20'0 0.0
2017-May-27 06:39N 43°21' E 005°20'0 0.0
2017-May-27 06:21N 43°21' E 005°20'0 0.0
2017-May-27 05:57N 43°21' E 005°20'0 0.8
2017-May-27 05:30N 43°21' E 005°19'4 7.8
2017-May-27 05:00N 43°19' E 005°15'5 9.3
2017-May-27 04:31N 43°16' E 005°10'714.0
2017-May-27 04:01N 43°10' E 005°05'816.3
2017-May-27 03:30N 43°03' E 004°58'1516.0
2017-May-27 02:35N 42°51' E 004°46'115.6
2017-May-27 02:30N 42°51' E 004°45'815.5
2017-May-27 01:59N 42°44' E 004°39'815.8
2017-May-27 01:28N 42°37' E 004°32'715.9
2017-May-27 01:00N 42°31' E 004°27'2142.1
2017-May-27 01:00N 42°30' E 004°24'712.6 330 / 91018.1 5.4 17.617.118.0
2017-May-27 00:26N 42°24' E 004°19'716.4
2017-May-27 00:00N 42°18' E 004°13'816.3
2017-May-26 23:29N 42°12' E 004°06'816.2
2017-May-26 22:59N 42°05' E 003°60'816.3
2017-May-26 22:28N 41°59' E 003°53'4916.1
2017-May-26 19:26N 41°20' E 003°12'716.3
2017-May-26 18:59N 41°15' E 003°06'816.2
2017-May-26 18:30N 41°09' E 002°59'816.3
2017-May-26 18:00N 41°02' E 002°53'816.5
2017-May-26 17:30N 40°56' E 002°46'816.6
2017-May-26 17:00N 40°49' E 002°39'816.5
2017-May-26 16:30N 40°43' E 002°32'816.1
2017-May-26 16:00N 40°36' E 002°26'815.8
2017-May-26 15:30N 40°30' E 002°19'815.6
2017-May-26 15:00N 40°24' E 002°13'815.5
2017-May-26 14:30N 40°18' E 002°07'1615.9
2017-May-26 13:30N 40°06' E 001°54'816.1
2017-May-26 13:00N 39°59' E 001°47'7414.9
2017-May-26 13:00N 39°54' E 001°42'2 3.8 020 / 131015.110.8 23.518.322.0
2017-May-26 12:30N 39°53' E 001°40'816.7
2017-May-26 12:00N 39°46' E 001°33'1416.8
2017-May-26 11:10N 39°35' E 001°22'316.7
2017-May-26 11:00N 39°33' E 001°20'1016.5
2017-May-26 10:25N 39°26' E 001°12'716.5
2017-May-26 10:00N 39°20' E 001°07'816.8
2017-May-26 09:30N 39°13' E 001°00'916.6
2017-May-26 08:58N 39°06' E 000°53'1016.7
2017-May-26 08:23N 38°59' E 000°45'616.5
2017-May-26 08:00N 38°54' E 000°40'4544.4
2017-May-26 07:00N 38°18' E 000°06'2481.4 020 / 171013.6 5.4 21.018.020.0
2017-May-26 06:42N 38°37' E 000°24'516.2
2017-May-26 06:25N 38°33' E 000°21'615.9
2017-May-26 06:00N 38°28' E 000°16'1616.1
2017-May-26 05:02N 38°15' E 000°05'016.4
2017-May-26 05:00N 38°14' E 000°05'916.1
2017-May-26 04:27N 38°07' W 000°02'716.5
2017-May-26 04:00N 38°01' W 000°08'816.5
2017-May-26 03:30N 37°54' W 000°14'916.6
2017-May-26 02:59N 37°47' W 000°19'816.5
2017-May-26 02:30N 37°40' W 000°24'816.3
2017-May-26 02:00N 37°33' W 000°30'1315.7
2017-May-26 01:09N 37°24' W 000°43'216.2
2017-May-26 01:00N 37°23' W 000°45'5515.1
2017-May-26 01:00N 37°18' W 000°42'916.7 360 / 291012.5 5.4 20.417.419.0
2017-May-26 00:29N 37°17' W 000°53'816.2
2017-May-26 00:01N 37°12' W 000°60'815.8
2017-May-25 23:30N 37°07' W 001°07'2215.5
2017-May-25 22:06N 36°52' W 001°28'215.3
2017-May-25 21:58N 36°51' W 001°30'177 8.4
2017-May-25 01:00N 36°00' W 005°00'737.6 050 / 141015.210.8 18.016.417.0
2017-May-25 00:49N 36°01' W 005°08'517.5
2017-May-25 00:31N 36°00' W 005°15'816.4
2017-May-25 00:01N 35°59' W 005°24'9612.9
2017-May-24 16:32N 36°08' W 007°23'112.8
2017-May-24 16:29N 36°08' W 007°24'612.5
2017-May-24 15:58N 36°10' W 007°31'29 9.8
2017-May-24 13:00N 36°18' W 008°06'3912.3 080 / 341013.210.8 21.017.319.0
2017-May-24 09:49N 36°29' W 008°53'411.2
2017-May-24 09:28N 36°29' W 008°57'3614.5
2017-May-24 07:00N 36°54' W 009°30'4 3.6 050 / 161013.927.0 19.515.918.0
2017-May-24 05:52N 36°54' W 009°35'512.4
2017-May-24 05:30N 36°58' W 009°36'612.6
2017-May-24 05:00N 37°05' W 009°35'612.7
2017-May-24 04:30N 37°11' W 009°34'612.7
2017-May-24 04:00N 37°17' W 009°33'612.5
2017-May-24 03:30N 37°24' W 009°33'612.4
2017-May-24 03:00N 37°30' W 009°32'612.3
2017-May-24 02:30N 37°36' W 009°31'612.4
2017-May-24 02:00N 37°42' W 009°31'612.1
2017-May-24 01:30N 37°48' W 009°30'612.1
2017-May-24 01:00N 37°54' W 009°29'4337.0
2017-May-24 01:00N 37°54' W 009°24'714.7 240 / 151013.710.8 18.317.718.0
2017-May-24 00:30N 38°00' W 009°29'612.3
2017-May-24 00:00N 38°06' W 009°27'612.1
2017-May-23 23:30N 38°12' W 009°26'612.3
2017-May-23 23:00N 38°18' W 009°25'612.2
2017-May-23 22:30N 38°24' W 009°24'612.7
2017-May-23 22:01N 38°31' W 009°24'611.6
2017-May-23 21:30N 38°36' W 009°23'510.1
2017-May-23 21:01N 38°40' W 009°19'5 9.1
2017-May-23 20:31N 38°41' W 009°13'4 8.5
2017-May-23 20:01N 38°42' W 009°08'0 0.0
2017-May-23 19:29N 38°43' W 009°08'0 0.0
2017-May-23 18:58N 38°43' W 009°08'0 0.0
2017-May-23 18:28N 38°43' W 009°08'0 0.0
2017-May-23 17:58N 38°43' W 009°08'0 0.0
2017-May-23 17:28N 38°43' W 009°08'0 0.0
2017-May-23 16:58N 38°43' W 009°08'0 0.0
2017-May-23 16:25N 38°43' W 009°08'0 0.0
2017-May-23 15:58N 38°43' W 009°08'0 0.0
2017-May-23 15:22N 38°43' W 009°08'0 0.0
2017-May-23 14:58N 38°43' W 009°08'0 0.0
2017-May-23 14:00N 38°43' W 009°08'0 0.0
2017-May-23 13:30N 38°43' W 009°08'0 0.0
2017-May-23 12:59N 38°43' W 009°08'0 0.0
2017-May-23 12:29N 38°43' W 009°08'0 0.0
2017-May-23 11:59N 38°43' W 009°08'0 0.0
2017-May-23 11:26N 38°43' W 009°08'0 0.4
2017-May-23 11:00N 38°42' W 009°07'4 8.0
2017-May-23 10:30N 38°41' W 009°12'5 9.7
2017-May-23 10:01N 38°40' W 009°18'713.6
2017-May-23 09:30N 38°36' W 009°25'714.5
2017-May-23 09:00N 38°36' W 009°34'713.7
2017-May-23 08:30N 38°40' W 009°42'815.3
2017-May-23 08:00N 38°47' W 009°43'815.2
2017-May-23 07:31N 38°55' W 009°44'815.6
2017-May-23 07:00N 39°03' W 009°44'815.8
2017-May-23 06:30N 39°10' W 009°45'816.7
2017-May-23 06:00N 39°19' W 009°47'5415.8
2017-May-23 06:00N 39°24' W 009°48'3 6.0 020 / 151016.110.8 17.516.116.0
2017-May-23 05:30N 39°27' W 009°49'816.4
2017-May-23 05:00N 39°35' W 009°51'1616.4
2017-May-23 04:01N 39°51' W 009°53'017.0
2017-May-23 04:00N 39°51' W 009°53'816.4
2017-May-23 03:30N 39°60' W 009°52'1216.4
2017-May-23 02:45N 40°12' W 009°51'416.4
2017-May-23 02:29N 40°16' W 009°51'816.6
2017-May-23 02:00N 40°24' W 009°48'1517.1 350 / 151017.110.8 16.515.116.0
2017-May-23 01:07N 40°38' W 009°53'416.3
2017-May-23 00:53N 40°42' W 009°53'616.4
2017-May-23 00:30N 40°48' W 009°54'816.4
2017-May-23 00:00N 40°57' W 009°56'1516.4
2017-May-22 23:07N 41°11' W 009°58'13105.7
2017-May-22 23:00N 41°24' W 009°54'10199.9 350 / 181019.710.8 16.414.515.0
2017-May-22 22:56N 41°14' W 009°58'3516.6
2017-May-22 20:51N 41°49' W 010°01'616.8
2017-May-22 20:30N 41°54' W 010°01'10215.7
2017-May-22 14:00N 43°36' W 009°48'11318.9 300 / 71021.210.8 17.515.115.0
2017-May-22 08:00N 45°12' W 008°24'8614.3 230 / 101007.4 2.2 14.012.513.0
2017-May-22 02:00N 46°18' W 007°06'9215.6 270 / 171012.710.8 13.911.714.0
2017-May-21 20:07N 47°42' W 006°12'515.6
2017-May-21 19:48N 47°46' W 006°08'815.8
2017-May-21 19:20N 47°53' W 006°03'516.0
2017-May-21 19:00N 47°57' W 005°58'2116.5
2017-May-21 17:44N 48°14' W 005°40'1316.9
2017-May-21 16:57N 48°25' W 005°30'816.8
2017-May-21 16:30N 48°31' W 005°23'816.8
2017-May-21 16:00N 48°38' W 005°15'816.7
2017-May-21 15:30N 48°44' W 005°06'916.5
2017-May-21 14:59N 48°49' W 004°57'2115.9
2017-May-21 13:38N 49°04' W 004°32'415.5
2017-May-21 13:21N 49°06' W 004°27'2615.3
2017-May-21 11:40N 49°25' W 004°00'415.5
2017-May-21 11:24N 49°28' W 003°56'715.9
2017-May-21 11:00N 49°32' W 003°48'816.3
2017-May-21 10:30N 49°38' W 003°39'816.6
2017-May-21 10:00N 49°44' W 003°30'2163.5
2017-May-21 10:00N 49°42' W 003°30'1019.8 120 / 271022.910.8 13.811.612.0
2017-May-21 09:29N 49°49' W 003°20'817.2
2017-May-21 09:00N 49°55' W 003°10'917.2
2017-May-21 08:30N 49°58' W 002°58'917.3
2017-May-21 08:00N 50°02' W 002°45'917.2
2017-May-21 07:29N 50°04' W 002°32'916.9
2017-May-21 06:56N 50°07' W 002°18'2729.1
2017-May-21 06:00N 50°12' W 001°36'10 6.7 180 / 141023.810.8 12.011.111.0
2017-May-21 04:32N 50°17' W 001°23'514.4
2017-May-21 04:11N 50°18' W 001°15'606506.3
2017-May-21 03:00N 60°24' W 000°36'60165565.4 190 / 141004.7 2.2 12.0 9.311.0
2017-May-21 02:59N 50°23' W 000°50'814.6
2017-May-21 02:28N 50°25' W 000°38'714.8
2017-May-21 02:00N 50°27' W 000°28'815.6
2017-May-21 01:30N 50°29' W 000°16'816.1
2017-May-21 01:00N 50°32' W 000°04'816.4
2017-May-21 00:30N 50°34' E 000°08'816.7
2017-May-21 00:00N 50°36' E 000°21'816.8
2017-May-20 23:30N 50°38' E 000°34'916.6
2017-May-20 22:59N 50°43' E 000°45'816.2
2017-May-20 22:30N 50°48' E 000°55'3 6.3
2017-May-20 22:00N 50°48' E 001°00'51401.9 190 / 161024.310.8 12.6 9.712.0
2017-May-20 21:59N 50°52' E 001°05'715.2
2017-May-20 21:30N 50°58' E 001°13'714.0
2017-May-20 21:01N 51°03' E 001°20'3 5.5
2017-May-20 20:30N 51°06' E 001°20'0 1.0
2017-May-20 20:00N 51°06' E 001°19'0 0.8
2017-May-20 19:28N 51°07' E 001°19'0 0.3
2017-May-20 18:59N 51°07' E 001°19'0 0.0
2017-May-20 18:28N 51°07' E 001°19'0 0.0
2017-May-20 18:00N 51°07' E 001°19'0 0.0
2017-May-20 17:27N 51°07' E 001°19'0 0.0
2017-May-20 17:00N 51°07' E 001°19'0 0.0
2017-May-20 16:11N 51°07' E 001°19'0 0.0
2017-May-20 15:59N 51°07' E 001°19'0 0.0
2017-May-20 15:28N 51°07' E 001°19'0 0.0
2017-May-20 14:54N 51°07' E 001°19'0 0.0
2017-May-20 14:15N 51°07' E 001°19'0 0.0
2017-May-20 13:30N 51°07' E 001°19'0 0.0
2017-May-20 12:55N 51°07' E 001°19'0 0.0
2017-May-20 12:30N 51°07' E 001°19'0 0.0
2017-May-20 11:56N 51°07' E 001°19'0 0.0
2017-May-20 11:26N 51°07' E 001°19'0 0.0
2017-May-20 10:56N 51°07' E 001°19'0 0.0
2017-May-20 10:28N 51°07' E 001°19'0 0.0
2017-May-20 09:58N 51°07' E 001°19'0 0.0
2017-May-20 09:25N 51°07' E 001°19'0 0.0
2017-May-20 08:28N 51°07' E 001°19'0 0.0
2017-May-20 08:00N 51°07' E 001°19'0 0.0
2017-May-20 07:30N 51°07' E 001°19'0 0.0
2017-May-20 06:59N 51°07' E 001°19'0 0.0
2017-May-20 06:22N 51°07' E 001°19'0 0.0
2017-May-20 05:31N 51°07' E 001°19'0 0.0
2017-May-20 05:25N 51°07' E 001°19'0 0.0
2017-May-20 04:55N 51°07' E 001°19'0 0.0
2017-May-20 04:25N 51°07' E 001°19'0 0.0
2017-May-20 03:45N 51°07' E 001°19'0 0.0
2017-May-20 02:45N 51°07' E 001°19'0 0.0
2017-May-20 02:30N 51°07' E 001°19'0 0.0
2017-May-20 01:57N 51°07' E 001°19'0 0.0
2017-May-20 01:29N 51°07' E 001°19'0 0.0
2017-May-20 00:49N 51°07' E 001°19'0 0.0
2017-May-20 00:27N 51°07' E 001°19'0 0.0
2017-May-20 00:00N 51°07' E 001°19'0 0.0
2017-May-19 23:29N 51°07' E 001°19'0 0.0
2017-May-19 22:11N 51°07' E 001°19'0 0.0
2017-May-19 22:00N 51°07' E 001°19'0 0.0
2017-May-19 21:25N 51°07' E 001°19'0 0.0
2017-May-19 21:00N 51°07' E 001°19'0 0.0
2017-May-19 20:30N 51°07' E 001°19'  
Track history (hours):
 
Tides and Currents Weather Stations Pressure Air Temp Water Temp Dewpoint Dewpoint Depression Visibility Wind Speed Wind Dir Waves Ship Positions

Saga Sapphire

Last reported at 2017-May-29 20:30 UTC. Time now 2017-May-29 20:41 UTC.
Position N 41°49' E 010°48'.

Length 200 m; draft 8.5 m.

Type: Ship. MMSI: 256208000.

Date/timePositionNaut miles runAvg speedWind from/ knotsBaromVisibWave heightAir tempDewpointWater temp
2017-May-29 20:30N 41°49' E 010°48'816.2
2017-May-29 20:00N 41°52' E 010°58'815.7
2017-May-29 19:30N 41°55' E 011°08'815.5
2017-May-29 19:00N 41°58' E 011°18'815.4
2017-May-29 18:27N 42°01' E 011°28'914.9
2017-May-29 17:52N 42°04' E 011°39'511.5
2017-May-29 17:29N 42°07' E 011°44'2 1.8
2017-May-29 16:33N 42°06' E 011°46'0 0.0
2017-May-29 10:35N 42°06' E 011°46'38 4.4
2017-May-29 01:48N 42°12' E 010°55'311.2
2017-May-29 01:30N 42°14' E 010°52'714.7
2017-May-29 01:00N 42°12' E 010°42'741.1 330 / 31018.210.8 20.418.021.0
2017-May-29 00:49N 42°19' E 010°44'410.9
2017-May-29 00:29N 42°22' E 010°41'1110.7
2017-May-28 23:26N 42°33' E 010°37'4 9.7
2017-May-28 23:00N 42°37' E 010°36'510.4
2017-May-28 22:30N 42°42' E 010°34'713.7
2017-May-28 22:00N 42°49' E 010°32'713.2
2017-May-28 21:30N 42°55' E 010°28'612.2
2017-May-28 21:00N 43°00' E 010°25'611.1
2017-May-28 20:30N 43°05' E 010°23'611.9
2017-May-28 20:00N 43°11' E 010°20'612.6
2017-May-28 19:30N 43°17' E 010°17'612.4
2017-May-28 19:00N 43°23' E 010°14'611.6
2017-May-28 18:30N 43°28' E 010°12'4 7.4
2017-May-28 18:00N 43°32' E 010°15'3 5.4
2017-May-28 17:30N 43°33' E 010°18'0 0.0
2017-May-28 16:55N 43°33' E 010°18'0 0.0
2017-May-28 16:28N 43°33' E 010°18'0 0.0
2017-May-28 16:00N 43°33' E 010°18'0 0.0
2017-May-28 15:30N 43°33' E 010°18'0 0.0
2017-May-28 15:00N 43°33' E 010°18'0 0.0
2017-May-28 14:00N 43°33' E 010°18'0 0.0
2017-May-28 13:29N 43°33' E 010°18'0 0.0
2017-May-28 12:59N 43°33' E 010°18'0 0.0
2017-May-28 12:28N 43°33' E 010°18'0 0.0
2017-May-28 11:55N 43°33' E 010°18'0 0.0
2017-May-28 11:28N 43°33' E 010°18'0 0.0
2017-May-28 11:00N 43°33' E 010°18'0 0.0
2017-May-28 10:30N 43°33' E 010°18'0 0.0
2017-May-28 10:00N 43°33' E 010°18'0 0.0
2017-May-28 09:30N 43°33' E 010°18'0 0.0
2017-May-28 09:00N 43°33' E 010°18'0 0.0
2017-May-28 08:30N 43°33' E 010°18'0 0.0
2017-May-28 08:00N 43°33' E 010°18'0 0.0
2017-May-28 07:30N 43°33' E 010°18'0 0.0
2017-May-28 07:00N 43°33' E 010°18'0 0.2
2017-May-28 06:30N 43°33' E 010°18'2 3.8
2017-May-28 06:00N 43°32' E 010°16'4 9.0
2017-May-28 05:30N 43°30' E 010°10'612.6
2017-May-28 05:00N 43°30' E 010°02'714.0
2017-May-28 04:30N 43°29' E 009°52'713.9
2017-May-28 04:00N 43°28' E 009°43'714.1
2017-May-28 03:30N 43°27' E 009°33'815.4
2017-May-28 03:01N 43°25' E 009°23'815.4
2017-May-28 02:31N 43°23' E 009°13'815.6
2017-May-28 02:00N 43°21' E 009°02'815.6
2017-May-28 01:30N 43°20' E 008°52'815.3
2017-May-28 01:00N 43°18' E 008°42'028.8
2017-May-28 01:00N 43°18' E 008°42'816.7 040 / 91020.510.8 19.617.920.0
2017-May-28 00:30N 43°15' E 008°31'1715.4
2017-May-27 23:23N 43°09' E 008°09'1915.3
2017-May-27 22:09N 43°08' E 007°43'416.2
2017-May-27 21:53N 43°07' E 007°38'616.3
2017-May-27 21:30N 43°06' E 007°29'6115.3
2017-May-27 17:29N 42°56' E 006°06'916.3
2017-May-27 16:56N 42°58' E 005°54'916.2
2017-May-27 16:24N 43°00' E 005°42'616.2
2017-May-27 16:00N 43°03' E 005°35'1015.1
2017-May-27 15:23N 43°07' E 005°23'614.9
2017-May-27 14:58N 43°12' E 005°17'9 9.4
2017-May-27 14:00N 43°21' E 005°20'0 0.1
2017-May-27 13:27N 43°21' E 005°20'0 0.0
2017-May-27 12:57N 43°21' E 005°20'0 0.0
2017-May-27 12:27N 43°21' E 005°20'0 0.0
2017-May-27 11:57N 43°21' E 005°20'0 0.0
2017-May-27 11:18N 43°21' E 005°20'0 0.0
2017-May-27 11:00N 43°21' E 005°20'0 0.0
2017-May-27 10:18N 43°21' E 005°20'0 0.0
2017-May-27 10:00N 43°21' E 005°20'0 0.0
2017-May-27 09:06N 43°21' E 005°20'0 0.0
2017-May-27 08:51N 43°21' E 005°20'0 0.0
2017-May-27 08:21N 43°21' E 005°20'0 0.0
2017-May-27 07:51N 43°21' E 005°20'0 0.0
2017-May-27 06:39N 43°21' E 005°20'0 0.0
2017-May-27 06:21N 43°21' E 005°20'0 0.0
2017-May-27 05:57N 43°21' E 005°20'0 0.8
2017-May-27 05:30N 43°21' E 005°19'4 7.8
2017-May-27 05:00N 43°19' E 005°15'5 9.3
2017-May-27 04:31N 43°16' E 005°10'714.0
2017-May-27 04:01N 43°10' E 005°05'816.3
2017-May-27 03:30N 43°03' E 004°58'1516.0
2017-May-27 02:35N 42°51' E 004°46'115.6
2017-May-27 02:30N 42°51' E 004°45'815.5
2017-May-27 01:59N 42°44' E 004°39'815.8
2017-May-27 01:28N 42°37' E 004°32'715.9
2017-May-27 01:00N 42°31' E 004°27'2142.1
2017-May-27 01:00N 42°30' E 004°24'712.6 330 / 91018.1 5.4 17.617.118.0
2017-May-27 00:26N 42°24' E 004°19'716.4
2017-May-27 00:00N 42°18' E 004°13'816.3
2017-May-26 23:29N 42°12' E 004°06'816.2
2017-May-26 22:59N 42°05' E 003°60'816.3
2017-May-26 22:28N 41°59' E 003°53'4916.1
2017-May-26 19:26N 41°20' E 003°12'716.3
2017-May-26 18:59N 41°15' E 003°06'816.2
2017-May-26 18:30N 41°09' E 002°59'816.3
2017-May-26 18:00N 41°02' E 002°53'816.5
2017-May-26 17:30N 40°56' E 002°46'816.6
2017-May-26 17:00N 40°49' E 002°39'816.5
2017-May-26 16:30N 40°43' E 002°32'816.1
2017-May-26 16:00N 40°36' E 002°26'815.8
2017-May-26 15:30N 40°30' E 002°19'815.6
2017-May-26 15:00N 40°24' E 002°13'815.5
2017-May-26 14:30N 40°18' E 002°07'1615.9
2017-May-26 13:30N 40°06' E 001°54'816.1
2017-May-26 13:00N 39°59' E 001°47'7414.9
2017-May-26 13:00N 39°54' E 001°42'2 3.8 020 / 131015.110.8 23.518.322.0
2017-May-26 12:30N 39°53' E 001°40'816.7
2017-May-26 12:00N 39°46' E 001°33'1416.8
2017-May-26 11:10N 39°35' E 001°22'316.7
2017-May-26 11:00N 39°33' E 001°20'1016.5
2017-May-26 10:25N 39°26' E 001°12'716.5
2017-May-26 10:00N 39°20' E 001°07'816.8
2017-May-26 09:30N 39°13' E 001°00'916.6
2017-May-26 08:58N 39°06' E 000°53'1016.7
2017-May-26 08:23N 38°59' E 000°45'616.5
2017-May-26 08:00N 38°54' E 000°40'4544.4
2017-May-26 07:00N 38°18' E 000°06'2481.4 020 / 171013.6 5.4 21.018.020.0
2017-May-26 06:42N 38°37' E 000°24'516.2
2017-May-26 06:25N 38°33' E 000°21'615.9
2017-May-26 06:00N 38°28' E 000°16'1616.1
2017-May-26 05:02N 38°15' E 000°05'016.4
2017-May-26 05:00N 38°14' E 000°05'916.1
2017-May-26 04:27N 38°07' W 000°02'716.5
2017-May-26 04:00N 38°01' W 000°08'816.5
2017-May-26 03:30N 37°54' W 000°14'916.6
2017-May-26 02:59N 37°47' W 000°19'816.5
2017-May-26 02:30N 37°40' W 000°24'816.3
2017-May-26 02:00N 37°33' W 000°30'1315.7
2017-May-26 01:09N 37°24' W 000°43'216.2
2017-May-26 01:00N 37°23' W 000°45'5515.1
2017-May-26 01:00N 37°18' W 000°42'916.7 360 / 291012.5 5.4 20.417.419.0
2017-May-26 00:29N 37°17' W 000°53'816.2
2017-May-26 00:01N 37°12' W 000°60'815.8
2017-May-25 23:30N 37°07' W 001°07'2215.5
2017-May-25 22:06N 36°52' W 001°28'215.3
2017-May-25 21:58N 36°51' W 001°30'177 8.4
2017-May-25 01:00N 36°00' W 005°00'737.6 050 / 141015.210.8 18.016.417.0
2017-May-25 00:49N 36°01' W 005°08'517.5
2017-May-25 00:31N 36°00' W 005°15'816.4
2017-May-25 00:01N 35°59' W 005°24'9612.9
2017-May-24 16:32N 36°08' W 007°23'112.8
2017-May-24 16:29N 36°08' W 007°24'612.5
2017-May-24 15:58N 36°10' W 007°31'29 9.8
2017-May-24 13:00N 36°18' W 008°06'3912.3 080 / 341013.210.8 21.017.319.0
2017-May-24 09:49N 36°29' W 008°53'411.2
2017-May-24 09:28N 36°29' W 008°57'3614.5
2017-May-24 07:00N 36°54' W 009°30'4 3.6 050 / 161013.927.0 19.515.918.0
2017-May-24 05:52N 36°54' W 009°35'512.4
2017-May-24 05:30N 36°58' W 009°36'612.6
2017-May-24 05:00N 37°05' W 009°35'612.7
2017-May-24 04:30N 37°11' W 009°34'612.7
2017-May-24 04:00N 37°17' W 009°33'612.5
2017-May-24 03:30N 37°24' W 009°33'612.4
2017-May-24 03:00N 37°30' W 009°32'612.3
2017-May-24 02:30N 37°36' W 009°31'612.4
2017-May-24 02:00N 37°42' W 009°31'612.1
2017-May-24 01:30N 37°48' W 009°30'612.1
2017-May-24 01:00N 37°54' W 009°29'4337.0
2017-May-24 01:00N 37°54' W 009°24'714.7 240 / 151013.710.8 18.317.718.0
2017-May-24 00:30N 38°00' W 009°29'612.3
2017-May-24 00:00N 38°06' W 009°27'612.1
2017-May-23 23:30N 38°12' W 009°26'612.3
2017-May-23 23:00N 38°18' W 009°25'612.2
2017-May-23 22:30N 38°24' W 009°24'612.7
2017-May-23 22:01N 38°31' W 009°24'611.6
2017-May-23 21:30N 38°36' W 009°23'510.1
2017-May-23 21:01N 38°40' W 009°19'5 9.1
2017-May-23 20:31N 38°41' W 009°13'4 8.5
2017-May-23 20:01N 38°42' W 009°08'0 0.0
2017-May-23 19:29N 38°43' W 009°08'0 0.0
2017-May-23 18:58N 38°43' W 009°08'0 0.0
2017-May-23 18:28N 38°43' W 009°08'0 0.0
2017-May-23 17:58N 38°43' W 009°08'0 0.0
2017-May-23 17:28N 38°43' W 009°08'0 0.0
2017-May-23 16:58N 38°43' W 009°08'0 0.0
2017-May-23 16:25N 38°43' W 009°08'0 0.0
2017-May-23 15:58N 38°43' W 009°08'0 0.0
2017-May-23 15:22N 38°43' W 009°08'0 0.0
2017-May-23 14:58N 38°43' W 009°08'0 0.0
2017-May-23 14:00N 38°43' W 009°08'0 0.0
2017-May-23 13:30N 38°43' W 009°08'0 0.0
2017-May-23 12:59N 38°43' W 009°08'0 0.0
2017-May-23 12:29N 38°43' W 009°08'0 0.0
2017-May-23 11:59N 38°43' W 009°08'0 0.0
2017-May-23 11:26N 38°43' W 009°08'0 0.4
2017-May-23 11:00N 38°42' W 009°07'4 8.0
2017-May-23 10:30N 38°41' W 009°12'5 9.7
2017-May-23 10:01N 38°40' W 009°18'713.6
2017-May-23 09:30N 38°36' W 009°25'714.5
2017-May-23 09:00N 38°36' W 009°34'713.7
2017-May-23 08:30N 38°40' W 009°42'815.3
2017-May-23 08:00N 38°47' W 009°43'815.2
2017-May-23 07:31N 38°55' W 009°44'815.6
2017-May-23 07:00N 39°03' W 009°44'815.8
2017-May-23 06:30N 39°10' W 009°45'816.7
2017-May-23 06:00N 39°19' W 009°47'5415.8
2017-May-23 06:00N 39°24' W 009°48'3 6.0 020 / 151016.110.8 17.516.116.0
2017-May-23 05:30N 39°27' W 009°49'816.4
2017-May-23 05:00N 39°35' W 009°51'1616.4
2017-May-23 04:01N 39°51' W 009°53'017.0
2017-May-23 04:00N 39°51' W 009°53'816.4
2017-May-23 03:30N 39°60' W 009°52'1216.4
2017-May-23 02:45N 40°12' W 009°51'416.4
2017-May-23 02:29N 40°16' W 009°51'816.6
2017-May-23 02:00N 40°24' W 009°48'1517.1 350 / 151017.110.8 16.515.116.0
2017-May-23 01:07N 40°38' W 009°53'416.3
2017-May-23 00:53N 40°42' W 009°53'616.4
2017-May-23 00:30N 40°48' W 009°54'816.4
2017-May-23 00:00N 40°57' W 009°56'1516.4
2017-May-22 23:07N 41°11' W 009°58'13105.7
2017-May-22 23:00N 41°24' W 009°54'10199.9 350 / 181019.710.8 16.414.515.0
2017-May-22 22:56N 41°14' W 009°58'3516.6
2017-May-22 20:51N 41°49' W 010°01'616.8
2017-May-22 20:30N 41°54' W 010°01'10215.7
2017-May-22 14:00N 43°36' W 009°48'11318.9 300 / 71021.210.8 17.515.115.0
2017-May-22 08:00N 45°12' W 008°24'8614.3 230 / 101007.4 2.2 14.012.513.0
2017-May-22 02:00N 46°18' W 007°06'9215.6 270 / 171012.710.8 13.911.714.0
2017-May-21 20:07N 47°42' W 006°12'515.6
2017-May-21 19:48N 47°46' W 006°08'815.8
2017-May-21 19:20N 47°53' W 006°03'516.0
2017-May-21 19:00N 47°57' W 005°58'2116.5
2017-May-21 17:44N 48°14' W 005°40'1316.9
2017-May-21 16:57N 48°25' W 005°30'816.8
2017-May-21 16:30N 48°31' W 005°23'816.8
2017-May-21 16:00N 48°38' W 005°15'816.7
2017-May-21 15:30N 48°44' W 005°06'916.5
2017-May-21 14:59N 48°49' W 004°57'2115.9
2017-May-21 13:38N 49°04' W 004°32'415.5
2017-May-21 13:21N 49°06' W 004°27'2615.3
2017-May-21 11:40N 49°25' W 004°00'415.5
2017-May-21 11:24N 49°28' W 003°56'715.9
2017-May-21 11:00N 49°32' W 003°48'816.3
2017-May-21 10:30N 49°38' W 003°39'816.6
2017-May-21 10:00N 49°44' W 003°30'2163.5
2017-May-21 10:00N 49°42' W 003°30'1019.8 120 / 271022.910.8 13.811.612.0
2017-May-21 09:29N 49°49' W 003°20'817.2
2017-May-21 09:00N 49°55' W 003°10'917.2
2017-May-21 08:30N 49°58' W 002°58'917.3
2017-May-21 08:00N 50°02' W 002°45'917.2
2017-May-21 07:29N 50°04' W 002°32'916.9
2017-May-21 06:56N 50°07' W 002°18'2729.1
2017-May-21 06:00N 50°12' W 001°36'10 6.7 180 / 141023.810.8 12.011.111.0
2017-May-21 04:32N 50°17' W 001°23'514.4
2017-May-21 04:11N 50°18' W 001°15'606506.3
2017-May-21 03:00N 60°24' W 000°36'60165565.4 190 / 141004.7 2.2 12.0 9.311.0
2017-May-21 02:59N 50°23' W 000°50'814.6
2017-May-21 02:28N 50°25' W 000°38'714.8
2017-May-21 02:00N 50°27' W 000°28'815.6
2017-May-21 01:30N 50°29' W 000°16'816.1
2017-May-21 01:00N 50°32' W 000°04'816.4
2017-May-21 00:30N 50°34' E 000°08'816.7
2017-May-21 00:00N 50°36' E 000°21'816.8
2017-May-20 23:30N 50°38' E 000°34'916.6
2017-May-20 22:59N 50°43' E 000°45'816.2
2017-May-20 22:30N 50°48' E 000°55'3 6.3
2017-May-20 22:00N 50°48' E 001°00'51401.9 190 / 161024.310.8 12.6 9.712.0
2017-May-20 21:59N 50°52' E 001°05'715.2
2017-May-20 21:30N 50°58' E 001°13'714.0
2017-May-20 21:01N 51°03' E 001°20'3 5.5
2017-May-20 20:30N 51°06' E 001°20'0 1.0
2017-May-20 20:00N 51°06' E 001°19'0 0.8
2017-May-20 19:28N 51°07' E 001°19'0 0.3
2017-May-20 18:59N 51°07' E 001°19'0 0.0
2017-May-20 18:28N 51°07' E 001°19'0 0.0
2017-May-20 18:00N 51°07' E 001°19'0 0.0
2017-May-20 17:27N 51°07' E 001°19'0 0.0
2017-May-20 17:00N 51°07' E 001°19'0 0.0
2017-May-20 16:11N 51°07' E 001°19'0 0.0
2017-May-20 15:59N 51°07' E 001°19'0 0.0
2017-May-20 15:28N 51°07' E 001°19'0 0.0
2017-May-20 14:54N 51°07' E 001°19'0 0.0
2017-May-20 14:15N 51°07' E 001°19'0 0.0
2017-May-20 13:30N 51°07' E 001°19'0 0.0
2017-May-20 12:55N 51°07' E 001°19'0 0.0
2017-May-20 12:30N 51°07' E 001°19'0 0.0
2017-May-20 11:56N 51°07' E 001°19'0 0.0
2017-May-20 11:26N 51°07' E 001°19'0 0.0
2017-May-20 10:56N 51°07' E 001°19'0 0.0
2017-May-20 10:28N 51°07' E 001°19'0 0.0
2017-May-20 09:58N 51°07' E 001°19'0 0.0
2017-May-20 09:25N 51°07' E 001°19'0 0.0
2017-May-20 08:28N 51°07' E 001°19'0 0.0
2017-May-20 08:00N 51°07' E 001°19'0 0.0
2017-May-20 07:30N 51°07' E 001°19'0 0.0
2017-May-20 06:59N 51°07' E 001°19'0 0.0
2017-May-20 06:22N 51°07' E 001°19'0 0.0
2017-May-20 05:31N 51°07' E 001°19'0 0.0
2017-May-20 05:25N 51°07' E 001°19'0 0.0
2017-May-20 04:55N 51°07' E 001°19'0 0.0
2017-May-20 04:25N 51°07' E 001°19'0 0.0
2017-May-20 03:45N 51°07' E 001°19'0 0.0
2017-May-20 02:45N 51°07' E 001°19'0 0.0
2017-May-20 02:30N 51°07' E 001°19'0 0.0
2017-May-20 01:57N 51°07' E 001°19'0 0.0
2017-May-20 01:29N 51°07' E 001°19'0 0.0
2017-May-20 00:49N 51°07' E 001°19'0 0.0
2017-May-20 00:27N 51°07' E 001°19'0 0.0
2017-May-20 00:00N 51°07' E 001°19'0 0.0
2017-May-19 23:29N 51°07' E 001°19'0 0.0
2017-May-19 22:11N 51°07' E 001°19'0 0.0
2017-May-19 22:00N 51°07' E 001°19'0 0.0
2017-May-19 21:25N 51°07' E 001°19'0 0.0
2017-May-19 21:00N 51°07' E 001°19'0 0.0
2017-May-19 20:30N 51°07' E 001°19'  

Dump ship's entire track history